sensor_id;sensor_type;location;lat;lon;timestamp;pressure;altitude;pressure_sealevel;temperature;humidity
56992;BME280;42885;49.754;18.636;2023-05-24T00:01:14;98017.90;;;20.25;100.00
56992;BME280;42885;49.754;18.636;2023-05-24T00:03:45;98019.70;;;20.25;100.00
56992;BME280;42885;49.754;18.636;2023-05-24T00:06:16;98017.26;;;20.35;100.00
56992;BME280;42885;49.754;18.636;2023-05-24T00:08:47;98017.23;;;20.23;100.00
56992;BME280;42885;49.754;18.636;2023-05-24T00:11:18;98021.04;;;20.20;100.00
56992;BME280;42885;49.754;18.636;2023-05-24T00:13:49;98018.08;;;20.28;100.00
56992;BME280;42885;49.754;18.636;2023-05-24T00:16:20;98018.36;;;20.12;100.00
56992;BME280;42885;49.754;18.636;2023-05-24T00:18:51;98020.67;;;20.11;100.00
56992;BME280;42885;49.754;18.636;2023-05-24T00:21:23;98017.69;;;20.10;100.00
56992;BME280;42885;49.754;18.636;2023-05-24T00:23:54;98013.75;;;19.92;100.00
56992;BME280;42885;49.754;18.636;2023-05-24T00:26:25;98017.17;;;20.06;100.00
56992;BME280;42885;49.754;18.636;2023-05-24T00:28:58;98015.41;;;19.93;100.00
56992;BME280;42885;49.754;18.636;2023-05-24T00:31:28;98017.77;;;19.96;100.00
56992;BME280;42885;49.754;18.636;2023-05-24T00:33:59;98016.41;;;19.92;100.00
56992;BME280;42885;49.754;18.636;2023-05-24T00:36:30;98014.86;;;19.81;100.00
56992;BME280;42885;49.754;18.636;2023-05-24T00:39:01;98010.94;;;19.63;100.00
56992;BME280;42885;49.754;18.636;2023-05-24T00:41:33;98013.96;;;19.64;100.00
56992;BME280;42885;49.754;18.636;2023-05-24T00:44:04;98011.83;;;19.72;100.00
56992;BME280;42885;49.754;18.636;2023-05-24T00:46:35;98015.25;;;19.60;100.00
56992;BME280;42885;49.754;18.636;2023-05-24T00:49:06;98019.74;;;19.59;100.00
56992;BME280;42885;49.754;18.636;2023-05-24T00:51:37;98019.55;;;19.57;100.00
56992;BME280;42885;49.754;18.636;2023-05-24T00:54:08;98013.67;;;19.45;100.00
56992;BME280;42885;49.754;18.636;2023-05-24T00:56:43;98020.59;;;19.64;100.00
56992;BME280;42885;49.754;18.636;2023-05-24T00:59:14;98021.22;;;19.58;100.00
56992;BME280;42885;49.754;18.636;2023-05-24T01:01:45;98024.69;;;19.58;100.00
56992;BME280;42885;49.754;18.636;2023-05-24T01:04:16;98028.45;;;19.47;100.00
56992;BME280;42885;49.754;18.636;2023-05-24T01:07:12;98028.45;;;19.47;100.00
56992;BME280;42885;49.754;18.636;2023-05-24T01:09:51;98032.86;;;19.38;100.00
56992;BME280;42885;49.754;18.636;2023-05-24T01:18:15;98034.19;;;19.38;100.00
56992;BME280;42885;49.754;18.636;2023-05-24T01:20:46;98033.98;;;19.32;100.00
56992;BME280;42885;49.754;18.636;2023-05-24T01:24:13;98035.10;;;19.51;100.00
56992;BME280;42885;49.754;18.636;2023-05-24T01:28:50;98034.83;;;19.63;100.00
56992;BME280;42885;49.754;18.636;2023-05-24T01:31:22;98038.36;;;19.41;100.00
56992;BME280;42885;49.754;18.636;2023-05-24T01:33:54;98034.72;;;19.42;100.00
56992;BME280;42885;49.754;18.636;2023-05-24T01:36:25;98034.77;;;19.50;100.00
56992;BME280;42885;49.754;18.636;2023-05-24T01:38:56;98039.08;;;19.47;100.00
56992;BME280;42885;49.754;18.636;2023-05-24T01:41:35;98035.77;;;19.53;100.00
56992;BME280;42885;49.754;18.636;2023-05-24T01:46:38;98045.05;;;19.49;100.00
56992;BME280;42885;49.754;18.636;2023-05-24T01:49:17;98041.63;;;19.35;100.00
56992;BME280;42885;49.754;18.636;2023-05-24T01:52:11;98041.67;;;19.39;100.00
56992;BME280;42885;49.754;18.636;2023-05-24T01:54:30;98036.78;;;19.30;100.00
56992;BME280;42885;49.754;18.636;2023-05-24T01:57:03;98040.97;;;19.37;100.00
56992;BME280;42885;49.754;18.636;2023-05-24T01:59:35;98041.41;;;19.50;100.00
56992;BME280;42885;49.754;18.636;2023-05-24T02:02:07;98047.94;;;19.38;100.00
56992;BME280;42885;49.754;18.636;2023-05-24T02:04:39;98044.95;;;19.37;100.00
56992;BME280;42885;49.754;18.636;2023-05-24T02:07:10;98046.86;;;19.49;100.00
56992;BME280;42885;49.754;18.636;2023-05-24T02:09:41;98050.45;;;19.39;100.00
56992;BME280;42885;49.754;18.636;2023-05-24T02:12:12;98049.19;;;19.25;100.00
56992;BME280;42885;49.754;18.636;2023-05-24T02:14:43;98055.02;;;19.07;100.00
56992;BME280;42885;49.754;18.636;2023-05-24T02:17:14;98047.52;;;19.24;100.00
56992;BME280;42885;49.754;18.636;2023-05-24T02:19:46;98049.45;;;19.18;100.00
56992;BME280;42885;49.754;18.636;2023-05-24T02:22:17;98046.99;;;19.43;100.00
56992;BME280;42885;49.754;18.636;2023-05-24T02:24:50;98045.88;;;19.28;100.00
56992;BME280;42885;49.754;18.636;2023-05-24T02:27:22;98045.80;;;19.37;100.00
56992;BME280;42885;49.754;18.636;2023-05-24T02:29:52;98054.07;;;19.61;100.00
56992;BME280;42885;49.754;18.636;2023-05-24T02:32:23;98047.76;;;19.58;100.00
56992;BME280;42885;49.754;18.636;2023-05-24T02:34:55;98055.95;;;19.46;100.00
56992;BME280;42885;49.754;18.636;2023-05-24T02:37:27;98052.63;;;19.44;100.00
56992;BME280;42885;49.754;18.636;2023-05-24T02:39:58;98045.95;;;19.62;100.00
56992;BME280;42885;49.754;18.636;2023-05-24T02:42:29;98043.49;;;19.65;100.00
56992;BME280;42885;49.754;18.636;2023-05-24T02:45:00;98041.94;;;19.58;100.00
56992;BME280;42885;49.754;18.636;2023-05-24T02:47:31;98053.02;;;19.53;100.00
56992;BME280;42885;49.754;18.636;2023-05-24T02:50:02;98045.01;;;19.67;100.00
56992;BME280;42885;49.754;18.636;2023-05-24T02:52:33;98046.62;;;19.64;100.00
56992;BME280;42885;49.754;18.636;2023-05-24T02:55:05;98053.21;;;19.83;100.00
56992;BME280;42885;49.754;18.636;2023-05-24T02:57:37;98053.95;;;19.40;100.00
56992;BME280;42885;49.754;18.636;2023-05-24T03:00:09;98058.92;;;19.39;100.00
56992;BME280;42885;49.754;18.636;2023-05-24T03:02:43;98055.42;;;19.38;100.00
56992;BME280;42885;49.754;18.636;2023-05-24T03:05:16;98056.61;;;19.44;100.00
56992;BME280;42885;49.754;18.636;2023-05-24T03:07:47;98053.67;;;19.47;100.00
56992;BME280;42885;49.754;18.636;2023-05-24T03:10:18;98059.94;;;19.24;100.00
56992;BME280;42885;49.754;18.636;2023-05-24T03:12:49;98062.58;;;19.20;100.00
56992;BME280;42885;49.754;18.636;2023-05-24T03:15:20;98062.11;;;19.24;100.00
56992;BME280;42885;49.754;18.636;2023-05-24T03:17:51;98065.25;;;19.24;100.00
56992;BME280;42885;49.754;18.636;2023-05-24T03:20:22;98065.44;;;19.26;100.00
56992;BME280;42885;49.754;18.636;2023-05-24T03:22:53;98069.75;;;19.28;100.00
56992;BME280;42885;49.754;18.636;2023-05-24T03:25:25;98071.40;;;19.24;100.00
56992;BME280;42885;49.754;18.636;2023-05-24T03:27:56;98077.11;;;19.16;100.00
56992;BME280;42885;49.754;18.636;2023-05-24T03:30:28;98069.81;;;19.14;100.00
56992;BME280;42885;49.754;18.636;2023-05-24T03:33:00;98078.56;;;19.10;100.00
56992;BME280;42885;49.754;18.636;2023-05-24T03:35:31;98079.25;;;18.98;100.00
56992;BME280;42885;49.754;18.636;2023-05-24T03:38:02;98084.62;;;18.88;100.00
56992;BME280;42885;49.754;18.636;2023-05-24T03:40:35;98084.39;;;18.81;100.00
56992;BME280;42885;49.754;18.636;2023-05-24T03:43:08;98087.58;;;18.85;100.00
56992;BME280;42885;49.754;18.636;2023-05-24T03:45:46;98090.30;;;19.44;100.00
56992;BME280;42885;49.754;18.636;2023-05-24T03:48:16;98093.17;;;18.50;100.00
56992;BME280;42885;49.754;18.636;2023-05-24T03:50:49;98091.94;;;18.30;100.00
56992;BME280;42885;49.754;18.636;2023-05-24T03:53:20;98090.51;;;18.22;100.00
56992;BME280;42885;49.754;18.636;2023-05-24T03:55:52;98089.05;;;18.37;100.00
56992;BME280;42885;49.754;18.636;2023-05-24T03:58:24;98094.39;;;18.55;100.00
56992;BME280;42885;49.754;18.636;2023-05-24T04:00:55;98096.56;;;18.56;100.00
56992;BME280;42885;49.754;18.636;2023-05-24T04:03:26;98095.02;;;18.67;100.00
56992;BME280;42885;49.754;18.636;2023-05-24T04:05:57;98094.87;;;18.55;100.00
56992;BME280;42885;49.754;18.636;2023-05-24T04:08:28;98102.36;;;18.41;100.00
56992;BME280;42885;49.754;18.636;2023-05-24T04:11:00;98121.72;;;18.42;100.00
56992;BME280;42885;49.754;18.636;2023-05-24T04:13:31;98129.50;;;17.72;100.00
56992;BME280;42885;49.754;18.636;2023-05-24T04:16:02;98128.43;;;17.65;100.00
56992;BME280;42885;49.754;18.636;2023-05-24T04:18:34;98139.70;;;17.57;100.00
56992;BME280;42885;49.754;18.636;2023-05-24T04:21:05;98135.13;;;17.39;100.00
56992;BME280;42885;49.754;18.636;2023-05-24T04:23:36;98140.06;;;17.38;100.00
56992;BME280;42885;49.754;18.636;2023-05-24T04:26:07;98142.14;;;17.05;100.00
56992;BME280;42885;49.754;18.636;2023-05-24T04:28:39;98149.93;;;17.16;100.00
56992;BME280;42885;49.754;18.636;2023-05-24T04:31:10;98154.55;;;17.24;100.00
56992;BME280;42885;49.754;18.636;2023-05-24T04:33:42;98163.34;;;17.09;100.00
56992;BME280;42885;49.754;18.636;2023-05-24T04:36:13;98162.13;;;16.98;100.00
56992;BME280;42885;49.754;18.636;2023-05-24T04:38:45;98161.42;;;17.21;100.00
56992;BME280;42885;49.754;18.636;2023-05-24T04:41:16;98170.74;;;17.15;100.00
56992;BME280;42885;49.754;18.636;2023-05-24T04:43:46;98171.30;;;17.19;100.00
56992;BME280;42885;49.754;18.636;2023-05-24T04:46:19;98173.67;;;17.12;100.00
56992;BME280;42885;49.754;18.636;2023-05-24T04:48:50;98174.23;;;17.16;100.00
56992;BME280;42885;49.754;18.636;2023-05-24T04:51:22;98183.61;;;17.14;100.00
56992;BME280;42885;49.754;18.636;2023-05-24T04:53:53;98178.30;;;17.40;100.00
56992;BME280;42885;49.754;18.636;2023-05-24T04:56:24;98179.80;;;17.42;100.00
56992;BME280;42885;49.754;18.636;2023-05-24T04:58:55;98180.43;;;17.20;100.00
56992;BME280;42885;49.754;18.636;2023-05-24T05:01:26;98187.39;;;17.41;100.00
56992;BME280;42885;49.754;18.636;2023-05-24T05:03:58;98183.48;;;17.55;100.00
56992;BME280;42885;49.754;18.636;2023-05-24T05:06:29;98180.84;;;17.55;100.00
56992;BME280;42885;49.754;18.636;2023-05-24T05:09:02;98186.63;;;17.25;100.00
56992;BME280;42885;49.754;18.636;2023-05-24T05:11:33;98192.06;;;17.33;100.00
56992;BME280;42885;49.754;18.636;2023-05-24T05:14:04;98199.63;;;17.23;100.00
56992;BME280;42885;49.754;18.636;2023-05-24T05:16:37;98200.39;;;17.19;100.00
56992;BME280;42885;49.754;18.636;2023-05-24T05:19:10;98210.41;;;17.15;100.00
56992;BME280;42885;49.754;18.636;2023-05-24T05:21:41;98217.19;;;16.83;100.00
56992;BME280;42885;49.754;18.636;2023-05-24T05:24:13;98217.55;;;16.53;100.00
56992;BME280;42885;49.754;18.636;2023-05-24T05:26:45;98224.66;;;16.52;100.00
56992;BME280;42885;49.754;18.636;2023-05-24T05:29:16;98226.09;;;16.35;100.00
56992;BME280;42885;49.754;18.636;2023-05-24T05:31:47;98230.14;;;16.18;100.00
56992;BME280;42885;49.754;18.636;2023-05-24T05:34:18;98237.13;;;16.13;100.00
56992;BME280;42885;49.754;18.636;2023-05-24T05:36:49;98248.97;;;16.24;100.00
56992;BME280;42885;49.754;18.636;2023-05-24T05:39:20;98251.19;;;16.14;100.00
56992;BME280;42885;49.754;18.636;2023-05-24T05:41:51;98251.03;;;16.21;100.00
56992;BME280;42885;49.754;18.636;2023-05-24T05:44:22;98259.22;;;16.33;100.00
56992;BME280;42885;49.754;18.636;2023-05-24T05:46:53;98262.98;;;16.62;100.00
56992;BME280;42885;49.754;18.636;2023-05-24T05:49:24;98260.63;;;16.74;100.00
56992;BME280;42885;49.754;18.636;2023-05-24T05:51:56;98270.26;;;16.54;100.00
56992;BME280;42885;49.754;18.636;2023-05-24T05:54:27;98268.41;;;16.45;100.00
56992;BME280;42885;49.754;18.636;2023-05-24T05:56:59;98280.19;;;16.41;100.00
56992;BME280;42885;49.754;18.636;2023-05-24T05:59:30;98279.32;;;16.46;100.00
56992;BME280;42885;49.754;18.636;2023-05-24T06:02:04;98281.30;;;16.54;100.00
56992;BME280;42885;49.754;18.636;2023-05-24T06:04:35;98287.28;;;16.56;100.00
56992;BME280;42885;49.754;18.636;2023-05-24T06:07:06;98285.59;;;16.39;100.00
56992;BME280;42885;49.754;18.636;2023-05-24T06:09:37;98286.89;;;16.45;100.00
56992;BME280;42885;49.754;18.636;2023-05-24T06:12:08;98293.62;;;16.43;100.00
56992;BME280;42885;49.754;18.636;2023-05-24T06:14:39;98291.06;;;16.26;100.00
56992;BME280;42885;49.754;18.636;2023-05-24T06:17:10;98292.88;;;16.26;100.00
56992;BME280;42885;49.754;18.636;2023-05-24T06:19:41;98297.20;;;16.27;100.00
56992;BME280;42885;49.754;18.636;2023-05-24T06:22:12;98307.10;;;16.34;100.00
56992;BME280;42885;49.754;18.636;2023-05-24T06:24:43;98305.77;;;16.19;100.00
56992;BME280;42885;49.754;18.636;2023-05-24T06:27:14;98319.27;;;16.04;100.00
56992;BME280;42885;49.754;18.636;2023-05-24T06:29:46;98319.67;;;15.94;100.00
56992;BME280;42885;49.754;18.636;2023-05-24T06:32:17;98325.30;;;15.83;100.00
56992;BME280;42885;49.754;18.636;2023-05-24T06:34:49;98326.19;;;16.11;100.00
56992;BME280;42885;49.754;18.636;2023-05-24T06:37:20;98332.64;;;16.18;100.00
56992;BME280;42885;49.754;18.636;2023-05-24T06:39:53;98344.41;;;16.20;100.00
56992;BME280;42885;49.754;18.636;2023-05-24T06:42:24;98351.91;;;15.98;100.00
56992;BME280;42885;49.754;18.636;2023-05-24T06:44:55;98353.38;;;16.23;100.00
56992;BME280;42885;49.754;18.636;2023-05-24T06:47:27;98355.29;;;16.27;100.00
56992;BME280;42885;49.754;18.636;2023-05-24T06:49:58;98358.78;;;16.21;100.00
56992;BME280;42885;49.754;18.636;2023-05-24T06:52:29;98360.86;;;16.12;100.00
56992;BME280;42885;49.754;18.636;2023-05-24T06:55:00;98363.30;;;16.36;100.00
56992;BME280;42885;49.754;18.636;2023-05-24T06:57:31;98363.27;;;16.15;100.00
56992;BME280;42885;49.754;18.636;2023-05-24T07:00:02;98367.34;;;16.41;100.00
56992;BME280;42885;49.754;18.636;2023-05-24T07:02:35;98376.27;;;16.34;100.00
56992;BME280;42885;49.754;18.636;2023-05-24T07:05:06;98375.50;;;16.64;100.00
56992;BME280;42885;49.754;18.636;2023-05-24T07:07:41;98374.84;;;16.51;100.00
56992;BME280;42885;49.754;18.636;2023-05-24T07:10:13;98373.33;;;16.64;100.00
56992;BME280;42885;49.754;18.636;2023-05-24T07:12:44;98385.61;;;16.59;100.00
56992;BME280;42885;49.754;18.636;2023-05-24T07:15:15;98379.63;;;16.57;100.00
56992;BME280;42885;49.754;18.636;2023-05-24T07:17:46;98392.39;;;16.52;100.00
56992;BME280;42885;49.754;18.636;2023-05-24T07:20:17;98385.33;;;16.47;100.00
56992;BME280;42885;49.754;18.636;2023-05-24T07:22:48;98398.23;;;16.61;100.00
56992;BME280;42885;49.754;18.636;2023-05-24T07:25:19;98397.49;;;16.65;100.00
56992;BME280;42885;49.754;18.636;2023-05-24T07:27:50;98401.15;;;16.74;100.00
56992;BME280;42885;49.754;18.636;2023-05-24T07:30:21;98395.74;;;16.54;100.00
56992;BME280;42885;49.754;18.636;2023-05-24T07:32:52;98409.69;;;16.50;100.00
56992;BME280;42885;49.754;18.636;2023-05-24T07:35:23;98410.70;;;16.65;100.00
56992;BME280;42885;49.754;18.636;2023-05-24T07:37:54;98416.19;;;16.68;100.00
56992;BME280;42885;49.754;18.636;2023-05-24T07:40:25;98412.61;;;16.63;100.00
56992;BME280;42885;49.754;18.636;2023-05-24T07:42:57;98411.91;;;16.82;100.00
56992;BME280;42885;49.754;18.636;2023-05-24T07:45:28;98421.16;;;16.61;100.00
56992;BME280;42885;49.754;18.636;2023-05-24T07:47:59;98413.08;;;16.68;100.00
56992;BME280;42885;49.754;18.636;2023-05-24T07:50:30;98416.92;;;16.64;100.00
56992;BME280;42885;49.754;18.636;2023-05-24T07:53:01;98420.37;;;16.49;100.00
56992;BME280;42885;49.754;18.636;2023-05-24T07:55:34;98419.21;;;16.90;100.00
56992;BME280;42885;49.754;18.636;2023-05-24T07:58:05;98414.86;;;17.16;100.00
56992;BME280;42885;49.754;18.636;2023-05-24T08:00:36;98415.67;;;16.95;100.00
56992;BME280;42885;49.754;18.636;2023-05-24T08:03:07;98424.33;;;17.03;100.00
56992;BME280;42885;49.754;18.636;2023-05-24T08:05:38;98420.94;;;17.06;100.00
56992;BME280;42885;49.754;18.636;2023-05-24T08:08:09;98431.45;;;16.70;100.00
56992;BME280;42885;49.754;18.636;2023-05-24T08:10:40;98435.38;;;16.75;100.00
56992;BME280;42885;49.754;18.636;2023-05-24T08:13:12;98436.05;;;16.83;100.00
56992;BME280;42885;49.754;18.636;2023-05-24T08:15:43;98444.36;;;16.78;100.00
56992;BME280;42885;49.754;18.636;2023-05-24T08:18:14;98440.05;;;16.77;100.00
56992;BME280;42885;49.754;18.636;2023-05-24T08:20:45;98447.90;;;16.95;100.00
56992;BME280;42885;49.754;18.636;2023-05-24T08:23:16;98453.69;;;16.88;100.00
56992;BME280;42885;49.754;18.636;2023-05-24T08:25:47;98448.30;;;16.84;100.00
56992;BME280;42885;49.754;18.636;2023-05-24T08:28:18;98448.02;;;16.93;100.00
56992;BME280;42885;49.754;18.636;2023-05-24T08:30:49;98453.30;;;16.72;100.00
56992;BME280;42885;49.754;18.636;2023-05-24T08:33:20;98460.69;;;16.84;100.00
56992;BME280;42885;49.754;18.636;2023-05-24T08:35:52;98462.24;;;16.86;100.00
56992;BME280;42885;49.754;18.636;2023-05-24T08:38:23;98460.53;;;16.91;100.00
56992;BME280;42885;49.754;18.636;2023-05-24T08:40:54;98458.23;;;16.92;100.00
56992;BME280;42885;49.754;18.636;2023-05-24T08:43:26;98466.83;;;17.05;100.00
56992;BME280;42885;49.754;18.636;2023-05-24T08:45:59;98468.87;;;17.08;100.00
56992;BME280;42885;49.754;18.636;2023-05-24T08:48:33;98470.72;;;16.96;100.00
56992;BME280;42885;49.754;18.636;2023-05-24T08:51:05;98469.44;;;16.90;100.00
56992;BME280;42885;49.754;18.636;2023-05-24T08:53:38;98474.48;;;16.87;100.00
56992;BME280;42885;49.754;18.636;2023-05-24T08:56:10;98478.72;;;17.05;100.00
56992;BME280;42885;49.754;18.636;2023-05-24T08:58:42;98473.08;;;16.77;100.00
56992;BME280;42885;49.754;18.636;2023-05-24T09:01:15;98478.52;;;16.70;100.00
56992;BME280;42885;49.754;18.636;2023-05-24T09:03:47;98491.50;;;16.68;100.00
56992;BME280;42885;49.754;18.636;2023-05-24T09:06:19;98492.09;;;16.77;100.00
56992;BME280;42885;49.754;18.636;2023-05-24T09:08:51;98499.45;;;16.95;100.00
56992;BME280;42885;49.754;18.636;2023-05-24T09:11:23;98493.31;;;16.67;100.00
56992;BME280;42885;49.754;18.636;2023-05-24T09:13:56;98495.98;;;16.56;100.00
56992;BME280;42885;49.754;18.636;2023-05-24T09:16:28;98496.37;;;16.84;100.00
56992;BME280;42885;49.754;18.636;2023-05-24T09:19:00;98502.26;;;16.49;100.00
56992;BME280;42885;49.754;18.636;2023-05-24T09:21:32;98507.94;;;16.71;100.00
56992;BME280;42885;49.754;18.636;2023-05-24T09:24:07;98501.89;;;16.81;100.00
56992;BME280;42885;49.754;18.636;2023-05-24T09:26:40;98503.64;;;17.03;100.00
56992;BME280;42885;49.754;18.636;2023-05-24T09:29:11;98513.63;;;16.93;100.00
56992;BME280;42885;49.754;18.636;2023-05-24T09:31:43;98512.31;;;16.88;100.00
56992;BME280;42885;49.754;18.636;2023-05-24T09:34:14;98509.94;;;16.85;100.00
56992;BME280;42885;49.754;18.636;2023-05-24T09:36:48;98514.02;;;16.83;100.00
56992;BME280;42885;49.754;18.636;2023-05-24T09:39:20;98513.05;;;16.84;100.00
56992;BME280;42885;49.754;18.636;2023-05-24T09:41:54;98516.75;;;16.66;100.00
56992;BME280;42885;49.754;18.636;2023-05-24T09:44:26;98523.70;;;16.67;100.00
56992;BME280;42885;49.754;18.636;2023-05-24T09:47:03;98514.10;;;16.66;100.00
56992;BME280;42885;49.754;18.636;2023-05-24T09:49:38;98517.07;;;16.73;100.00
56992;BME280;42885;49.754;18.636;2023-05-24T09:52:12;98521.71;;;16.86;100.00
56992;BME280;42885;49.754;18.636;2023-05-24T09:54:43;98524.52;;;17.06;100.00
56992;BME280;42885;49.754;18.636;2023-05-24T09:57:16;98533.31;;;17.06;100.00
56992;BME280;42885;49.754;18.636;2023-05-24T09:59:52;98528.88;;;17.01;100.00
56992;BME280;42885;49.754;18.636;2023-05-24T10:02:21;98524.67;;;16.93;100.00
56992;BME280;42885;49.754;18.636;2023-05-24T10:05:01;98526.65;;;16.85;100.00
56992;BME280;42885;49.754;18.636;2023-05-24T10:07:34;98525.50;;;16.99;100.00
56992;BME280;42885;49.754;18.636;2023-05-24T10:10:06;98528.10;;;17.11;100.00
56992;BME280;42885;49.754;18.636;2023-05-24T10:12:37;98518.38;;;17.05;100.00
56992;BME280;42885;49.754;18.636;2023-05-24T10:15:10;98526.66;;;17.33;100.00
56992;BME280;42885;49.754;18.636;2023-05-24T10:17:41;98528.30;;;17.19;100.00
56992;BME280;42885;49.754;18.636;2023-05-24T10:20:13;98534.12;;;17.07;100.00
56992;BME280;42885;49.754;18.636;2023-05-24T10:22:46;98532.92;;;17.05;100.00
56992;BME280;42885;49.754;18.636;2023-05-24T10:25:20;98538.89;;;16.86;100.00
56992;BME280;42885;49.754;18.636;2023-05-24T10:27:49;98538.41;;;17.72;100.00
56992;BME280;42885;49.754;18.636;2023-05-24T10:30:30;98533.31;;;17.06;100.00
56992;BME280;42885;49.754;18.636;2023-05-24T10:33:03;98538.13;;;17.01;100.00
56992;BME280;42885;49.754;18.636;2023-05-24T10:35:34;98539.30;;;16.97;100.00
56992;BME280;42885;49.754;18.636;2023-05-24T10:38:07;98541.67;;;17.12;100.00
56992;BME280;42885;49.754;18.636;2023-05-24T10:40:42;98541.52;;;17.40;100.00
56992;BME280;42885;49.754;18.636;2023-05-24T10:43:13;98544.00;;;17.47;100.00
56992;BME280;42885;49.754;18.636;2023-05-24T10:45:48;98551.95;;;17.26;100.00
56992;BME280;42885;49.754;18.636;2023-05-24T10:51:31;98551.79;;;17.33;100.00
56992;BME280;42885;49.754;18.636;2023-05-24T10:54:18;98552.80;;;17.21;100.00
56992;BME280;42885;49.754;18.636;2023-05-24T10:56:50;98554.67;;;17.30;100.00
56992;BME280;42885;49.754;18.636;2023-05-24T10:59:30;98552.45;;;17.20;100.00
56992;BME280;42885;49.754;18.636;2023-05-24T11:02:09;98550.55;;;17.38;100.00
56992;BME280;42885;49.754;18.636;2023-05-24T11:04:47;98550.66;;;17.42;100.00
56992;BME280;42885;49.754;18.636;2023-05-24T11:07:19;98549.64;;;17.48;100.00
56992;BME280;42885;49.754;18.636;2023-05-24T11:09:50;98544.39;;;17.43;100.00
56992;BME280;42885;49.754;18.636;2023-05-24T11:12:29;98543.61;;;17.52;100.00
56992;BME280;42885;49.754;18.636;2023-05-24T11:14:58;98547.58;;;17.52;100.00
56992;BME280;42885;49.754;18.636;2023-05-24T11:17:33;98547.50;;;17.48;100.00
56992;BME280;42885;49.754;18.636;2023-05-24T11:20:06;98549.78;;;17.63;100.00
56992;BME280;42885;49.754;18.636;2023-05-24T11:22:38;98542.53;;;17.70;100.00
56992;BME280;42885;49.754;18.636;2023-05-24T11:25:11;98550.07;;;17.75;100.00
56992;BME280;42885;49.754;18.636;2023-05-24T11:27:43;98540.46;;;18.56;100.00
56992;BME280;42885;49.754;18.636;2023-05-24T11:30:15;98549.64;;;17.48;100.00
56992;BME280;42885;49.754;18.636;2023-05-24T11:32:47;98550.59;;;17.69;100.00
56992;BME280;42885;49.754;18.636;2023-05-24T11:35:19;98546.75;;;17.83;100.00
56992;BME280;42885;49.754;18.636;2023-05-24T11:37:52;98547.78;;;17.92;100.00
56992;BME280;42885;49.754;18.636;2023-05-24T11:40:23;98547.25;;;17.98;100.00
56992;BME280;42885;49.754;18.636;2023-05-24T11:42:55;98546.89;;;18.12;100.00
56992;BME280;42885;49.754;18.636;2023-05-24T11:45:28;98546.50;;;18.42;100.00
56992;BME280;42885;49.754;18.636;2023-05-24T11:48:05;98545.73;;;18.21;100.00
56992;BME280;42885;49.754;18.636;2023-05-24T11:50:40;98542.80;;;18.14;100.00
56992;BME280;42885;49.754;18.636;2023-05-24T11:53:15;98546.91;;;17.81;100.00
56992;BME280;42885;49.754;18.636;2023-05-24T11:55:46;98543.25;;;18.29;100.00
56992;BME280;42885;49.754;18.636;2023-05-24T11:58:43;98544.00;;;18.15;100.00
56992;BME280;42885;49.754;18.636;2023-05-24T12:01:26;98543.63;;;17.99;100.00
56992;BME280;42885;49.754;18.636;2023-05-24T12:03:53;98550.84;;;18.18;100.00
56992;BME280;42885;49.754;18.636;2023-05-24T12:06:38;98548.58;;;17.98;100.00
56992;BME280;42885;49.754;18.636;2023-05-24T12:09:12;98550.59;;;18.31;100.00
56992;BME280;42885;49.754;18.636;2023-05-24T12:11:51;98551.86;;;18.47;100.00
56992;BME280;42885;49.754;18.636;2023-05-24T12:14:29;98549.30;;;18.51;100.00
56992;BME280;42885;49.754;18.636;2023-05-24T12:17:00;98547.41;;;18.47;100.00
56992;BME280;42885;49.754;18.636;2023-05-24T12:19:32;98552.67;;;18.27;100.00
56992;BME280;42885;49.754;18.636;2023-05-24T12:22:07;98548.78;;;18.06;100.00
56992;BME280;42885;49.754;18.636;2023-05-24T12:24:38;98555.99;;;18.04;100.00
56992;BME280;42885;49.754;18.636;2023-05-24T12:27:10;98554.19;;;18.30;100.00
56992;BME280;42885;49.754;18.636;2023-05-24T12:29:42;98555.44;;;17.95;100.00
56992;BME280;42885;49.754;18.636;2023-05-24T12:32:13;98556.34;;;18.05;100.00
56992;BME280;42885;49.754;18.636;2023-05-24T12:34:45;98561.63;;;18.21;100.00
56992;BME280;42885;49.754;18.636;2023-05-24T12:37:17;98555.33;;;18.27;100.00
56992;BME280;42885;49.754;18.636;2023-05-24T12:39:50;98553.87;;;17.98;100.00
56992;BME280;42885;49.754;18.636;2023-05-24T12:42:22;98552.06;;;18.14;100.00
56992;BME280;42885;49.754;18.636;2023-05-24T12:44:53;98557.25;;;18.25;100.00
56992;BME280;42885;49.754;18.636;2023-05-24T12:47:24;98546.45;;;18.58;100.00
56992;BME280;42885;49.754;18.636;2023-05-24T12:49:56;98545.48;;;18.24;100.00
56992;BME280;42885;49.754;18.636;2023-05-24T12:52:27;98539.59;;;18.46;100.00
56992;BME280;42885;49.754;18.636;2023-05-24T12:54:58;98542.90;;;18.28;100.00
56992;BME280;42885;49.754;18.636;2023-05-24T12:57:29;98546.21;;;18.36;100.00
56992;BME280;42885;49.754;18.636;2023-05-24T13:00:00;98537.60;;;18.28;100.00
56992;BME280;42885;49.754;18.636;2023-05-24T13:02:33;98537.60;;;18.28;100.00
56992;BME280;42885;49.754;18.636;2023-05-24T13:05:05;98546.52;;;18.27;100.00
56992;BME280;42885;49.754;18.636;2023-05-24T13:07:37;98547.97;;;18.15;100.00
56992;BME280;42885;49.754;18.636;2023-05-24T13:10:09;98541.67;;;18.32;100.00
56992;BME280;42885;49.754;18.636;2023-05-24T13:12:40;98544.44;;;18.56;100.00
56992;BME280;42885;49.754;18.636;2023-05-24T13:15:12;98549.33;;;18.61;100.00
56992;BME280;42885;49.754;18.636;2023-05-24T13:17:43;98545.80;;;18.50;100.00
56992;BME280;42885;49.754;18.636;2023-05-24T13:20:15;98538.70;;;18.51;100.00